createdAt,value
2018-11-29T00:02:11.249Z,95812.94
2018-11-29T00:04:41.802Z,95815.12
2018-11-29T00:07:11.917Z,95820.83
2018-11-29T00:09:42.201Z,95825.16
2018-11-29T00:12:12.881Z,95830.16
2018-11-29T00:14:43.827Z,95834.91
2018-11-29T00:17:14.079Z,95842.44
2018-11-29T00:19:44.265Z,95841.91
2018-11-29T00:22:14.744Z,95847.27
2018-11-29T00:24:46.225Z,95852.81
2018-11-29T00:27:16.444Z,95858.13
2018-11-29T00:29:46.787Z,95861.43
2018-11-29T00:32:17.068Z,95860.78
2018-11-29T00:34:48.253Z,95860.38
2018-11-29T00:37:18.636Z,95867.09
2018-11-29T00:39:48.992Z,95877.05
2018-11-29T00:42:19.405Z,95875.90
2018-11-29T00:44:50.432Z,95882.84
2018-11-29T00:47:21.049Z,95880.44
2018-11-29T00:49:51.808Z,95890.03
2018-11-29T00:52:22.308Z,95890.36
2018-11-29T00:54:53.421Z,95892.61
2018-11-29T00:57:23.614Z,95892.55
2018-11-29T00:59:53.922Z,95895.53
2018-11-29T01:02:24.043Z,95900.06
2018-11-29T01:04:55.283Z,95906.23
2018-11-29T01:07:25.557Z,95905.73
2018-11-29T01:09:55.601Z,95905.22
2018-11-29T01:12:26.062Z,95906.89
2018-11-29T01:14:56.883Z,95908.52
2018-11-29T01:17:26.606Z,95908.95
2018-11-29T01:19:56.397Z,95911.67
2018-11-29T01:22:26.217Z,95909.41
2018-11-29T01:24:56.539Z,95911.59
2018-11-29T01:27:26.382Z,95905.81
2018-11-29T01:29:56.132Z,95914.30
2018-11-29T01:32:25.856Z,95918.30
2018-11-29T01:34:55.517Z,95914.04
2018-11-29T01:37:25.463Z,95914.92
2018-11-29T01:39:55.592Z,95916.85
2018-11-29T01:42:26.048Z,95912.62
2018-11-29T01:44:57.503Z,95924.05
2018-11-29T01:47:27.793Z,95926.81
2018-11-29T01:49:58.248Z,95923.02
2018-11-29T01:52:29.149Z,95923.69
2018-11-29T01:54:58.979Z,95926.14
2018-11-29T01:57:28.731Z,95916.10
2018-11-29T01:59:58.364Z,95923.42
2018-11-29T02:02:28.221Z,95930.53
2018-11-29T02:04:58.069Z,95929.58
2018-11-29T02:07:27.856Z,95930.95
2018-11-29T02:10:02.534Z,95928.25
2018-11-29T02:12:32.260Z,95931.77
2018-11-29T02:15:03.033Z,95930.64
2018-11-29T02:17:32.848Z,95941.55
2018-11-29T02:20:02.569Z,95939.58
2018-11-29T02:22:32.251Z,95942.34
2018-11-29T02:25:02.012Z,95940.80
2018-11-29T02:27:31.797Z,95941.02
2018-11-29T02:30:01.691Z,95947.61
2018-11-29T02:32:31.627Z,95947.66
2018-11-29T02:35:01.484Z,95952.06
2018-11-29T02:37:31.221Z,95953.47
2018-11-29T02:40:01.153Z,95957.34
2018-11-29T02:42:30.995Z,95965.78
2018-11-29T02:45:00.725Z,95961.27
2018-11-29T02:47:30.450Z,95963.17
2018-11-29T02:50:00.194Z,95969.18
2018-11-29T02:52:29.971Z,95965.67
2018-11-29T02:54:59.835Z,95973.87
2018-11-29T02:57:29.696Z,95975.13
2018-11-29T02:59:59.593Z,95972.48
2018-11-29T03:02:29.465Z,95983.87
2018-11-29T03:04:59.205Z,95982.08
2018-11-29T03:07:28.974Z,95987.95
2018-11-29T03:09:58.781Z,95989.58
2018-11-29T03:12:28.684Z,95994.05
2018-11-29T03:14:58.435Z,95996.08
2018-11-29T03:17:28.281Z,96001.00
2018-11-29T03:19:58.223Z,96006.00
2018-11-29T03:22:28.048Z,96005.79
2018-11-29T03:24:57.828Z,96012.11
2018-11-29T03:27:27.614Z,96004.31
2018-11-29T03:29:57.458Z,96009.38
2018-11-29T03:32:27.357Z,96010.72
2018-11-29T03:34:57.176Z,96013.77
2018-11-29T03:37:26.970Z,96014.03
2018-11-29T03:39:56.761Z,96030.63
2018-11-29T03:42:26.624Z,96041.67
2018-11-29T03:44:56.490Z,96037.69
2018-11-29T03:47:26.063Z,96046.61
2018-11-29T03:49:55.900Z,96046.56
2018-11-29T03:52:25.607Z,96057.77
2018-11-29T03:54:55.510Z,96053.11
2018-11-29T03:57:25.344Z,96062.31
2018-11-29T03:59:55.220Z,96069.33
2018-11-29T04:02:25.121Z,96064.16
2018-11-29T04:04:55.196Z,96066.66
2018-11-29T04:07:25.022Z,96074.52
2018-11-29T04:09:54.807Z,96070.98
2018-11-29T04:12:24.561Z,96081.27
2018-11-29T04:14:54.355Z,96084.28
2018-11-29T04:17:24.213Z,96081.66
2018-11-29T04:19:53.988Z,96089.30
2018-11-29T04:22:23.592Z,96083.37
2018-11-29T04:24:53.326Z,96085.15
2018-11-29T04:27:23.172Z,96092.18
2018-11-29T04:29:53.020Z,96095.58
2018-11-29T04:32:22.797Z,96101.42
2018-11-29T04:34:52.681Z,96092.13
2018-11-29T04:37:22.468Z,96095.08
2018-11-29T04:39:52.298Z,96097.87
2018-11-29T04:42:22.153Z,96101.66
2018-11-29T04:44:51.998Z,96105.68
2018-11-29T04:47:21.835Z,96102.11
2018-11-29T04:49:51.701Z,96107.48
2018-11-29T04:52:21.469Z,96116.78
2018-11-29T04:54:51.236Z,96112.48
2018-11-29T04:57:21.112Z,96123.03
2018-11-29T04:59:50.829Z,96120.16
2018-11-29T05:02:20.636Z,96132.42
2018-11-29T05:04:50.556Z,96130.84
2018-11-29T05:07:20.584Z,96144.69
2018-11-29T05:09:50.537Z,96139.34
2018-11-29T05:12:20.364Z,96149.59
2018-11-29T05:14:50.128Z,96151.94
2018-11-29T05:17:20.230Z,96148.89
2018-11-29T05:19:50.825Z,96160.73
2018-11-29T05:22:21.330Z,96162.19
2018-11-29T05:24:52.122Z,96170.97
2018-11-29T05:27:22.531Z,96176.53
2018-11-29T05:29:53.033Z,96175.89
2018-11-29T05:32:23.158Z,96177.27
2018-11-29T05:34:53.252Z,96177.09
2018-11-29T05:37:22.868Z,96180.25
2018-11-29T05:39:52.757Z,96186.62
2018-11-29T05:42:22.449Z,96186.65
2018-11-29T05:44:52.214Z,96188.27
2018-11-29T05:47:22.040Z,96188.44
2018-11-29T05:49:51.753Z,96197.95
2018-11-29T05:52:21.620Z,96195.59
2018-11-29T05:54:51.636Z,96186.67
2018-11-29T05:57:21.532Z,96200.13
2018-11-29T05:59:51.420Z,96198.81
2018-11-29T06:02:21.204Z,96204.96
2018-11-29T06:04:51.087Z,96211.13
2018-11-29T06:07:20.820Z,96210.89
2018-11-29T06:09:51.005Z,96213.98
2018-11-29T06:12:20.895Z,96221.05
2018-11-29T06:14:50.711Z,96226.03
2018-11-29T06:17:20.511Z,96223.31
2018-11-29T06:19:50.393Z,96231.36
2018-11-29T06:22:20.290Z,96225.77
2018-11-29T06:24:50.146Z,96236.73
2018-11-29T06:27:19.972Z,96234.72
2018-11-29T06:29:50.220Z,96245.00
2018-11-29T06:32:20.803Z,96243.66
2018-11-29T06:34:51.728Z,96256.02
2018-11-29T06:37:21.684Z,96256.77
2018-11-29T06:39:51.400Z,96253.31
2018-11-29T06:42:21.194Z,96255.60
2018-11-29T06:44:51.189Z,96256.61
2018-11-29T06:47:20.928Z,96267.82
2018-11-29T06:49:50.656Z,96270.70
2018-11-29T06:52:20.529Z,96270.92
2018-11-29T06:54:50.069Z,96277.80
2018-11-29T06:57:20.026Z,96276.36
2018-11-29T06:59:49.770Z,96284.95
2018-11-29T07:02:19.527Z,96287.01
2018-11-29T07:04:49.314Z,96289.36
2018-11-29T07:07:19.221Z,96289.03
2018-11-29T07:09:49.105Z,96301.24
2018-11-29T07:12:19.048Z,96300.69
2018-11-29T07:14:48.828Z,96302.75
2018-11-29T07:17:18.689Z,96307.22
2018-11-29T07:19:48.486Z,96308.33
2018-11-29T07:22:18.150Z,96313.01
2018-11-29T07:24:48.133Z,96323.48
2018-11-29T07:27:18.825Z,96323.25
2018-11-29T07:29:47.863Z,96319.60
2018-11-29T07:32:18.560Z,96322.84
2018-11-29T07:34:49.317Z,96326.40
2018-11-29T07:37:19.130Z,96335.15
2018-11-29T07:39:48.804Z,96328.36
2018-11-29T07:42:18.481Z,96330.13
2018-11-29T07:44:48.361Z,96329.92
2018-11-29T07:47:18.210Z,96322.33
2018-11-29T07:49:48.010Z,96322.91
2018-11-29T07:52:17.726Z,96322.02
2018-11-29T07:54:47.616Z,96317.06
2018-11-29T07:57:17.502Z,96315.02
2018-11-29T07:59:47.439Z,96319.04
2018-11-29T08:02:17.184Z,96323.00
2018-11-29T08:04:47.324Z,96324.45
2018-11-29T08:07:17.665Z,96326.48
2018-11-29T08:09:47.273Z,96319.23
2018-11-29T08:12:17.132Z,96322.83
2018-11-29T08:14:46.986Z,96320.55
2018-11-29T08:17:16.960Z,96319.61
2018-11-29T08:19:46.881Z,96313.19
2018-11-29T08:22:16.840Z,96316.83
2018-11-29T08:24:46.626Z,96316.41
2018-11-29T08:27:16.346Z,96312.14
2018-11-29T08:29:46.053Z,96314.45
2018-11-29T08:32:15.832Z,96314.61
2018-11-29T08:34:45.621Z,96314.89
2018-11-29T08:37:15.294Z,96310.47
2018-11-29T08:39:45.077Z,96310.55
2018-11-29T08:42:14.940Z,96304.26
2018-11-29T08:44:44.608Z,96308.24
2018-11-29T08:47:14.323Z,96303.67
2018-11-29T08:49:44.115Z,96304.23
2018-11-29T08:52:14.134Z,96306.13
2018-11-29T08:54:44.536Z,96302.41
2018-11-29T08:57:15.654Z,96306.91
2018-11-29T08:59:45.968Z,96310.95
2018-11-29T09:02:15.830Z,96309.53
2018-11-29T09:04:46.311Z,96309.88
2018-11-29T09:07:16.069Z,96306.86
2018-11-29T09:09:45.936Z,96308.23
2018-11-29T09:12:15.619Z,96305.97
2018-11-29T09:14:45.334Z,96303.58
2018-11-29T09:17:15.422Z,96295.09
2018-11-29T09:19:45.177Z,96293.78
2018-11-29T09:22:14.977Z,96294.69
2018-11-29T09:24:44.794Z,96298.84
2018-11-29T09:27:14.614Z,96294.53
2018-11-29T09:29:44.445Z,96288.56
2018-11-29T09:32:14.200Z,96283.53
2018-11-29T09:34:43.964Z,96274.19
2018-11-29T09:37:13.784Z,96277.70
2018-11-29T09:39:43.545Z,96278.59
2018-11-29T09:42:13.465Z,96277.16
2018-11-29T09:44:43.214Z,96268.56
2018-11-29T09:47:13.101Z,96275.40
2018-11-29T09:49:43.024Z,96257.58
2018-11-29T09:52:12.727Z,96262.09
2018-11-29T09:54:42.532Z,96262.49
2018-11-29T09:57:12.368Z,96260.30
2018-11-29T09:59:42.213Z,96258.00
2018-11-29T10:02:12.093Z,96254.36
2018-11-29T10:04:41.929Z,96240.39
2018-11-29T10:07:11.765Z,96231.98
2018-11-29T10:09:41.562Z,96237.30
2018-11-29T10:12:11.383Z,96235.59
2018-11-29T10:14:41.150Z,96235.83
2018-11-29T10:17:10.869Z,96222.70
2018-11-29T10:19:40.653Z,96225.91
2018-11-29T10:22:10.516Z,96227.87
2018-11-29T10:24:40.372Z,96230.76
2018-11-29T10:27:10.197Z,96221.51
2018-11-29T10:29:39.987Z,96214.09
2018-11-29T10:32:09.749Z,96207.53
2018-11-29T10:34:39.613Z,96203.95
2018-11-29T10:37:09.379Z,96211.80
2018-11-29T10:39:40.374Z,96203.80
2018-11-29T10:42:09.131Z,96208.77
2018-11-29T10:44:38.841Z,96207.44
2018-11-29T10:47:08.583Z,96213.31
2018-11-29T10:49:38.330Z,96203.00
2018-11-29T10:52:08.051Z,96208.16
2018-11-29T10:54:37.932Z,96103.47
2018-11-29T10:57:08.211Z,96206.28
2018-11-29T10:59:37.950Z,96204.34
2018-11-29T11:02:14.222Z,96204.50
2018-11-29T11:04:44.366Z,96201.73
2018-11-29T11:07:14.287Z,96198.72
2018-11-29T11:09:44.084Z,96203.95
2018-11-29T11:12:18.610Z,96206.89
2018-11-29T11:14:43.799Z,96204.09
2018-11-29T11:17:13.595Z,95952.34
2018-11-29T11:19:43.465Z,96234.67
2018-11-29T11:22:13.322Z,96206.39
2018-11-29T11:24:43.119Z,96199.22
2018-11-29T11:27:12.902Z,96202.76
2018-11-29T11:29:42.627Z,96192.67
2018-11-29T11:32:12.498Z,96192.13
2018-11-29T11:34:42.236Z,96181.88
2018-11-29T11:37:12.077Z,96184.78
2018-11-29T11:39:41.923Z,96185.19
2018-11-29T11:42:11.721Z,96185.70
2018-11-29T11:44:41.604Z,96183.93
2018-11-29T11:47:11.371Z,96171.73
2018-11-29T11:49:41.273Z,96177.75
2018-11-29T11:52:11.127Z,96171.84
2018-11-29T11:54:40.928Z,96176.83
2018-11-29T11:57:10.714Z,96176.81
2018-11-29T11:59:40.469Z,96167.98
2018-11-29T12:02:10.359Z,96168.83
2018-11-29T12:04:40.092Z,96161.66
2018-11-29T12:07:09.870Z,96159.25
2018-11-29T12:09:39.706Z,96167.10
2018-11-29T12:12:09.475Z,96157.17
2018-11-29T12:14:39.225Z,96151.89
2018-11-29T12:17:09.076Z,96150.14
2018-11-29T12:19:38.841Z,96150.78
2018-11-29T12:22:08.930Z,96148.39
2018-11-29T12:24:38.756Z,96149.48
2018-11-29T12:27:08.564Z,96145.53
2018-11-29T12:29:38.436Z,96143.83
2018-11-29T12:32:08.620Z,96145.04
2018-11-29T12:34:38.363Z,96145.43
2018-11-29T12:37:08.268Z,96148.83
2018-11-29T12:39:38.132Z,96143.30
2018-11-29T12:42:07.974Z,96150.95
2018-11-29T12:44:37.816Z,96146.00
2018-11-29T12:47:07.756Z,96148.12
2018-11-29T12:49:37.698Z,96146.56
2018-11-29T12:52:07.942Z,96159.36
2018-11-29T12:54:37.720Z,96151.13
2018-11-29T12:57:07.572Z,96152.70
2018-11-29T12:59:37.410Z,96144.97
2018-11-29T13:02:07.664Z,96091.37
2018-11-29T13:04:38.019Z,96146.13
2018-11-29T13:07:07.824Z,96142.92
2018-11-29T13:09:37.622Z,96141.97
2018-11-29T13:12:07.451Z,96144.44
2018-11-29T13:14:37.303Z,96143.23
2018-11-29T13:17:06.992Z,96142.60
2018-11-29T13:19:36.773Z,96140.44
2018-11-29T13:22:06.391Z,96145.66
2018-11-29T13:24:36.471Z,96149.66
2018-11-29T13:27:06.376Z,96146.63
2018-11-29T13:29:37.321Z,96148.02
2018-11-29T13:32:07.202Z,96147.02
2018-11-29T13:34:37.866Z,96152.75
2018-11-29T13:37:07.650Z,96153.44
2018-11-29T13:39:37.529Z,96150.64
2018-11-29T13:42:07.648Z,96150.97
2018-11-29T13:44:38.142Z,96156.16
2018-11-29T13:47:08.005Z,96148.42
2018-11-29T13:49:37.744Z,96153.20
2018-11-29T13:52:07.585Z,96161.48
2018-11-29T13:54:37.426Z,96160.48
2018-11-29T13:57:07.257Z,96155.38
2018-11-29T13:59:37.086Z,96160.36
2018-11-29T14:02:06.900Z,96154.22
2018-11-29T14:04:36.729Z,96165.91
2018-11-29T14:07:06.692Z,96167.86
2018-11-29T14:09:36.468Z,96174.67
2018-11-29T14:12:06.917Z,96174.89
2018-11-29T14:14:37.710Z,96180.95
2018-11-29T14:17:07.608Z,96184.16
2018-11-29T14:19:37.437Z,96188.84
2018-11-29T14:22:07.279Z,96189.52
2018-11-29T14:24:38.045Z,96187.73
2018-11-29T14:27:08.005Z,96189.39
2018-11-29T14:29:37.882Z,96196.53
2018-11-29T14:32:08.197Z,96199.48
2018-11-29T14:34:37.917Z,96194.59
2018-11-29T14:37:07.745Z,96198.06
2018-11-29T14:39:37.608Z,96204.02
2018-11-29T14:42:07.770Z,96205.96
2018-11-29T14:44:37.546Z,96214.44
2018-11-29T14:47:07.280Z,96212.18
2018-11-29T14:49:37.004Z,96226.52
2018-11-29T14:52:08.122Z,96221.00
2018-11-29T14:54:37.162Z,96221.31
2018-11-29T14:57:07.023Z,96230.98
2018-11-29T14:59:36.945Z,96235.50
2018-11-29T15:02:06.738Z,96241.23
2018-11-29T15:04:36.580Z,96240.61
2018-11-29T15:07:06.782Z,96245.00
2018-11-29T15:09:36.597Z,96245.89
2018-11-29T15:12:06.445Z,96255.50
2018-11-29T15:14:36.285Z,96244.13
2018-11-29T15:17:06.918Z,96256.80
2018-11-29T15:19:37.085Z,96260.80
2018-11-29T15:22:07.145Z,96264.55
2018-11-29T15:24:37.903Z,96261.20
2018-11-29T15:27:07.798Z,96267.55
2018-11-29T15:29:37.804Z,96266.26
2018-11-29T15:32:07.672Z,96267.38
2018-11-29T15:34:37.908Z,96260.92
2018-11-29T15:37:07.700Z,96276.72
2018-11-29T15:39:37.498Z,96281.34
2018-11-29T15:42:07.585Z,96266.72
2018-11-29T15:44:37.501Z,96270.61
2018-11-29T15:47:38.623Z,96279.42
2018-11-29T15:50:11.330Z,96287.51
2018-11-29T15:52:40.969Z,96286.35
2018-11-29T15:55:15.778Z,96289.17
2018-11-29T15:57:46.257Z,96304.49
2018-11-29T16:00:23.809Z,96297.33
2018-11-29T16:02:55.646Z,96301.92
2018-11-29T16:05:25.329Z,96304.13
2018-11-29T16:07:55.245Z,96308.14
2018-11-29T16:10:26.344Z,96313.41
2018-11-29T16:12:57.104Z,96313.88
2018-11-29T16:15:26.882Z,96313.56
2018-11-29T16:17:56.695Z,96308.92
2018-11-29T16:20:29.596Z,96308.97
2018-11-29T16:22:59.903Z,96313.26
2018-11-29T16:25:29.680Z,96315.03
2018-11-29T16:29:23.567Z,96311.22
2018-11-29T16:31:53.573Z,96318.11
2018-11-29T16:34:23.865Z,96320.83
2018-11-29T16:36:53.597Z,96319.36
2018-11-29T16:39:23.441Z,96320.27
2018-11-29T16:41:53.345Z,96309.95
2018-11-29T16:44:23.150Z,96316.67
2018-11-29T16:46:53.012Z,96316.08
2018-11-29T16:49:22.881Z,96316.78
2018-11-29T16:51:52.731Z,96313.23
2018-11-29T16:54:22.578Z,96317.59
2018-11-29T16:56:52.346Z,96316.09
2018-11-29T16:59:22.781Z,96315.64
2018-11-29T17:01:53.207Z,96273.30
2018-11-29T17:04:23.438Z,96315.33
2018-11-29T17:06:53.957Z,96319.16
2018-11-29T17:09:24.306Z,96316.23
2018-11-29T17:11:54.420Z,96319.53
2018-11-29T17:14:24.308Z,96318.20
2018-11-29T17:16:54.775Z,96315.09
2018-11-29T17:19:25.668Z,96318.51
2018-11-29T17:22:01.537Z,96319.05
2018-11-29T17:24:31.932Z,96316.29
2018-11-29T17:27:02.683Z,96313.58
2018-11-29T17:29:33.416Z,96322.96
2018-11-29T17:32:04.045Z,96316.30
2018-11-29T17:34:34.577Z,96319.46
2018-11-29T17:37:04.880Z,96326.63
2018-11-29T17:39:35.014Z,96333.28
2018-11-29T17:42:07.182Z,96330.45
2018-11-29T17:44:36.776Z,96337.72
2018-11-29T17:47:07.129Z,96339.50
2018-11-29T17:49:37.265Z,96340.53
2018-11-29T17:52:08.788Z,96346.56
2018-11-29T17:54:39.220Z,96337.68
2018-11-29T17:57:09.386Z,96339.12
2018-11-29T17:59:39.554Z,96336.45
2018-11-29T18:02:11.114Z,96343.42
2018-11-29T18:04:41.125Z,96337.20
2018-11-29T18:07:11.649Z,96343.98
2018-11-29T18:09:42.092Z,96343.91
2018-11-29T18:12:13.227Z,96347.39
2018-11-29T18:14:43.634Z,96347.98
2018-11-29T18:17:13.491Z,96346.92
2018-11-29T18:19:43.285Z,96353.05
2018-11-29T18:22:14.582Z,96351.63
2018-11-29T18:24:45.010Z,96352.84
2018-11-29T18:27:15.065Z,96354.66
2018-11-29T18:29:45.244Z,96346.03
2018-11-29T18:32:15.693Z,96358.03
2018-11-29T18:34:46.054Z,96360.16
2018-11-29T18:37:16.197Z,96365.01
2018-11-29T18:39:46.786Z,96361.15
2018-11-29T18:42:18.232Z,96359.91
2018-11-29T18:44:48.967Z,96362.73
2018-11-29T18:47:19.584Z,96360.49
2018-11-29T18:49:49.883Z,96357.55
2018-11-29T18:52:21.154Z,96365.86
2018-11-29T18:54:51.392Z,96359.69
2018-11-29T18:57:21.750Z,96366.66
2018-11-29T18:59:52.153Z,96367.58
2018-11-29T19:02:24.713Z,96365.61
2018-11-29T19:04:54.352Z,96368.36
2018-11-29T19:07:24.957Z,96367.25
2018-11-29T19:09:55.088Z,96356.05
2018-11-29T19:12:26.619Z,96367.95
2018-11-29T19:14:57.206Z,96362.52
2018-11-29T19:17:27.566Z,96360.92
2018-11-29T19:19:57.882Z,96362.41
2018-11-29T19:22:28.477Z,96363.13
2018-11-29T19:24:58.865Z,96368.38
2018-11-29T19:27:28.704Z,96370.39
2018-11-29T19:29:58.681Z,96367.86
2018-11-29T19:32:30.033Z,96357.47
2018-11-29T19:35:00.575Z,96358.38
2018-11-29T19:37:30.767Z,96363.44
2018-11-29T19:40:01.109Z,96360.07
2018-11-29T19:42:32.019Z,96364.80
2018-11-29T19:45:01.706Z,96364.45
2018-11-29T19:47:31.420Z,96362.49
2018-11-29T19:50:01.116Z,96362.89
2018-11-29T19:52:31.393Z,96355.84
2018-11-29T19:55:01.682Z,96363.72
2018-11-29T19:57:31.926Z,96358.97
2018-11-29T20:00:01.770Z,96357.48
2018-11-29T20:02:32.711Z,96356.11
2018-11-29T20:05:02.606Z,96355.98
2018-11-29T20:07:33.057Z,96356.56
2018-11-29T20:10:03.640Z,96355.77
2018-11-29T20:12:35.042Z,96343.05
2018-11-29T20:15:04.963Z,96354.05
2018-11-29T20:17:34.693Z,96340.89
2018-11-29T20:20:04.738Z,96349.92
2018-11-29T20:22:35.736Z,96344.23
2018-11-29T20:25:06.277Z,96346.68
2018-11-29T20:27:36.094Z,96341.75
2018-11-29T20:30:07.201Z,96344.03
2018-11-29T20:32:38.160Z,96352.05
2018-11-29T20:35:08.984Z,96336.05
2018-11-29T20:37:38.974Z,96342.77
2018-11-29T20:40:11.790Z,96344.33
2018-11-29T20:42:42.021Z,96340.52
2018-11-29T20:45:14.557Z,96339.77
2018-11-29T20:47:44.328Z,96342.64
2018-11-29T20:50:15.737Z,96334.06
2018-11-29T20:52:46.443Z,96326.92
2018-11-29T20:55:18.069Z,96324.37
2018-11-29T20:57:48.035Z,96321.67
2018-11-29T21:00:17.915Z,96316.33
2018-11-29T21:02:48.891Z,96310.47
2018-11-29T21:05:20.147Z,96305.93
2018-11-29T21:07:51.756Z,96299.50
2018-11-29T21:10:25.580Z,96301.62
2018-11-29T21:12:56.598Z,96303.67
2018-11-29T21:15:26.823Z,96243.28
2018-11-29T21:17:57.037Z,96300.03
2018-11-29T21:20:27.397Z,96300.72
2018-11-29T21:22:57.997Z,96306.70
2018-11-29T21:25:28.052Z,96304.98
2018-11-29T21:27:57.842Z,96309.91
2018-11-29T21:30:27.777Z,96305.02
2018-11-29T21:32:58.184Z,96296.64
2018-11-29T21:35:27.802Z,96299.00
2018-11-29T21:37:57.671Z,96294.47
2018-11-29T21:40:30.838Z,96295.11
2018-11-29T21:43:01.540Z,96298.89
2018-11-29T21:45:31.534Z,96293.27
2018-11-29T21:48:01.316Z,96294.92
2018-11-29T21:50:31.038Z,96293.17
2018-11-29T21:53:00.788Z,96285.52
2018-11-29T21:55:30.339Z,96281.86
2018-11-29T21:58:00.753Z,96280.02
2018-11-29T22:00:30.888Z,96273.38
2018-11-29T22:03:01.338Z,96271.05
2018-11-29T22:05:31.237Z,96272.40
2018-11-29T22:08:01.054Z,96269.67
2018-11-29T22:10:30.792Z,96263.37
2018-11-29T22:13:00.833Z,96263.44
2018-11-29T22:15:30.413Z,96253.63
2018-11-29T22:18:20.458Z,96247.53
2018-11-29T22:21:07.198Z,96203.69
2018-11-29T22:23:38.967Z,96250.75
2018-11-29T22:26:12.382Z,96249.09
2018-11-29T22:28:43.182Z,96256.44
2018-11-29T22:31:16.865Z,96248.08
2018-11-29T22:33:47.349Z,96247.50
2018-11-29T22:36:17.617Z,96248.86
2018-11-29T22:38:48.174Z,96236.72
2018-11-29T22:41:19.324Z,96237.78
2018-11-29T22:43:49.705Z,96239.00
2018-11-29T22:46:20.029Z,96227.64
2018-11-29T22:48:50.452Z,96235.41
2018-11-29T22:51:21.542Z,96230.03
2018-11-29T22:53:51.837Z,96232.25
2018-11-29T22:56:22.355Z,96223.05
2018-11-29T22:58:52.798Z,96222.95
2018-11-29T23:01:28.141Z,96219.88
2018-11-29T23:03:58.300Z,96216.25
2018-11-29T23:06:28.516Z,96221.04
2018-11-29T23:08:58.727Z,96215.95
2018-11-29T23:11:29.734Z,96210.98
2018-11-29T23:13:59.983Z,96210.69
2018-11-29T23:16:30.261Z,96201.15
2018-11-29T23:19:00.842Z,96196.86
2018-11-29T23:21:31.478Z,96194.36
2018-11-29T23:24:01.716Z,96195.19
2018-11-29T23:26:31.987Z,96195.69
2018-11-29T23:29:02.182Z,96191.60
2018-11-29T23:31:33.400Z,96187.30
2018-11-29T23:34:03.957Z,96186.77
2018-11-29T23:36:34.136Z,96177.80
2018-11-29T23:39:04.695Z,96172.30
2018-11-29T23:41:34.996Z,96170.60
2018-11-29T23:44:05.295Z,96173.69
2018-11-29T23:46:35.803Z,96168.48
2018-11-29T23:49:06.230Z,96166.00
2018-11-29T23:51:40.642Z,96173.55
2018-11-29T23:54:11.068Z,96167.81
2018-11-29T23:56:41.602Z,96163.05
2018-11-29T23:59:11.965Z,96169.39
